createdAt,value
2022-08-01T00:00:52.246Z,100773.75
2022-08-01T00:03:19.275Z,100772.94
2022-08-01T00:05:47.668Z,100774.88
2022-08-01T00:08:14.781Z,100774.56
2022-08-01T00:10:41.925Z,100769.91
2022-08-01T00:13:10.529Z,100770.94
2022-08-01T00:15:37.769Z,100775.53
2022-08-01T00:18:04.887Z,100768.56
2022-08-01T00:20:31.984Z,100770.78
2022-08-01T00:22:58.995Z,100768.84
2022-08-01T00:25:34.385Z,100765.31
2022-08-01T00:28:02.489Z,100768.84
2022-08-01T00:30:32.040Z,100767.38
2022-08-01T00:32:59.049Z,100760.84
2022-08-01T00:35:26.175Z,100766.09
2022-08-01T00:37:53.622Z,100771.38
2022-08-01T00:40:20.722Z,100764.09
2022-08-01T00:42:48.105Z,100766.41
2022-08-01T00:45:15.193Z,100757.94
2022-08-01T00:47:42.285Z,100767.09
2022-08-01T00:50:10.610Z,100760.47
2022-08-01T00:52:39.966Z,100752.66
2022-08-01T00:55:07.832Z,100753.13
2022-08-01T00:58:03.243Z,100759.66
2022-08-01T01:00:27.334Z,100752.75
2022-08-01T01:02:54.695Z,100750.81
2022-08-01T01:05:22.323Z,100759.56
2022-08-01T01:08:04.009Z,100754.28
2022-08-01T01:10:48.972Z,100755.69
2022-08-01T01:13:50.724Z,100762.16
2022-08-01T01:16:22.250Z,100758.09
2022-08-01T01:19:01.471Z,100754.28
2022-08-01T01:21:46.693Z,100751.75
2022-08-01T01:24:37.793Z,100754.06
2022-08-01T01:27:29.996Z,100761.69
2022-08-01T01:30:01.118Z,100745.31
2022-08-01T01:32:40.402Z,100751.28
2022-08-01T01:35:16.813Z,100741.94
2022-08-01T01:37:46.701Z,100738.97
2022-08-01T01:40:16.357Z,100738.84
2022-08-01T01:42:44.679Z,100739.59
2022-08-01T01:45:13.032Z,100741.31
2022-08-01T01:47:40.979Z,100746.38
2022-08-01T01:50:12.940Z,100739.75
2022-08-01T01:52:43.343Z,100741.91
2022-08-01T01:55:11.357Z,100739.53
2022-08-01T01:57:42.378Z,100739.16
2022-08-01T02:00:13.013Z,100742.84
2022-08-01T02:02:41.675Z,100747.34
2022-08-01T02:05:12.641Z,100743.53
2022-08-01T02:07:41.675Z,100744.63
2022-08-01T02:10:11.280Z,100737.00
2022-08-01T02:12:42.952Z,100738.00
2022-08-01T02:15:12.474Z,100728.09
2022-08-01T02:17:44.962Z,100726.88
2022-08-01T02:20:13.344Z,100735.09
2022-08-01T02:23:12.618Z,100731.00
2022-08-01T02:26:10.949Z,100737.53
2022-08-01T02:29:00.407Z,100736.16
2022-08-01T02:31:32.779Z,100734.09
2022-08-01T02:34:07.659Z,100729.41
2022-08-01T02:36:36.442Z,100735.09
2022-08-01T02:39:09.975Z,100738.13
2022-08-01T02:41:44.197Z,100729.50
2022-08-01T02:44:17.676Z,100735.63
2022-08-01T02:47:03.321Z,100732.28
2022-08-01T02:49:34.101Z,100729.63
2022-08-01T02:52:08.242Z,100721.06
2022-08-01T02:54:38.269Z,100727.84
2022-08-01T02:57:07.179Z,100731.50
2022-08-01T02:59:38.249Z,100735.28
2022-08-01T03:02:10.051Z,100733.38
2022-08-01T03:04:41.950Z,100737.06
2022-08-01T03:07:11.744Z,100733.97
2022-08-01T03:09:46.484Z,100738.06
2022-08-01T03:12:20.000Z,100735.00
2022-08-01T03:14:50.535Z,100735.78
2022-08-01T03:17:22.100Z,100730.78
2022-08-01T03:19:50.989Z,100728.69
2022-08-01T03:22:19.646Z,100731.75
2022-08-01T03:24:52.308Z,100724.66
2022-08-01T03:27:22.255Z,100725.88
2022-08-01T03:29:50.814Z,100718.53
2022-08-01T03:32:20.133Z,100725.28
2022-08-01T03:34:47.567Z,100729.97
2022-08-01T03:38:14.919Z,100734.00
2022-08-01T03:41:19.275Z,100735.63
2022-08-01T03:44:08.820Z,100734.00
2022-08-01T03:46:49.330Z,100728.47
2022-08-01T03:49:21.543Z,100726.59
2022-08-01T03:51:50.606Z,100724.53
2022-08-01T03:54:41.295Z,100730.53
2022-08-01T03:57:10.138Z,100726.63
2022-08-01T03:59:59.481Z,100738.09
2022-08-01T04:02:28.979Z,100733.66
2022-08-01T04:04:56.580Z,100731.56
2022-08-01T04:07:32.143Z,100728.84
2022-08-01T04:09:59.711Z,100736.28
2022-08-01T04:12:26.756Z,100732.25
2022-08-01T04:14:54.166Z,100735.81
2022-08-01T04:17:21.305Z,100732.56
2022-08-01T04:19:48.405Z,100735.72
2022-08-01T04:22:16.611Z,100738.47
2022-08-01T04:24:56.471Z,100735.88
2022-08-01T04:27:50.080Z,100739.34
2022-08-01T04:30:32.611Z,100738.06
2022-08-01T04:33:02.401Z,100735.00
2022-08-01T04:36:02.293Z,100734.25
2022-08-01T04:38:24.458Z,100735.69
2022-08-01T04:40:53.647Z,100742.78
2022-08-01T04:43:20.930Z,100737.00
2022-08-01T04:45:49.622Z,100745.91
2022-08-01T04:48:22.850Z,100745.34
2022-08-01T04:50:50.575Z,100749.78
2022-08-01T04:53:20.231Z,100749.94
2022-08-01T04:55:47.788Z,100739.13
2022-08-01T04:58:18.453Z,100747.81
2022-08-01T05:00:49.513Z,100745.44
2022-08-01T05:03:16.788Z,100759.53
2022-08-01T05:05:43.820Z,100748.91
2022-08-01T05:08:11.191Z,100752.25
2022-08-01T05:10:38.416Z,100754.91
2022-08-01T05:13:07.538Z,100756.22
2022-08-01T05:15:37.741Z,100747.00
2022-08-01T05:18:05.079Z,100745.19
2022-08-01T05:20:34.765Z,100747.69
2022-08-01T05:23:01.808Z,100747.63
2022-08-01T05:25:36.513Z,100740.97
2022-08-01T05:28:19.047Z,100743.16
2022-08-01T05:30:46.736Z,100735.59
2022-08-01T05:33:13.978Z,100749.19
2022-08-01T05:35:48.776Z,100740.94
2022-08-01T05:38:17.026Z,100737.03
2022-08-01T05:40:44.371Z,100738.38
2022-08-01T05:43:11.583Z,100741.13
2022-08-01T05:45:38.610Z,100737.97
2022-08-01T05:48:06.019Z,100736.41
2022-08-01T05:50:34.890Z,100739.25
2022-08-01T05:53:02.018Z,100729.72
2022-08-01T05:55:29.267Z,100734.81
2022-08-01T05:57:56.774Z,100731.84
2022-08-01T06:00:24.053Z,100723.06
2022-08-01T06:02:51.063Z,100726.41
2022-08-01T06:05:18.434Z,100723.97
2022-08-01T06:07:45.585Z,100722.59
2022-08-01T06:10:12.735Z,100717.25
2022-08-01T06:12:39.870Z,100721.09
2022-08-01T06:15:07.761Z,100725.28
2022-08-01T06:17:34.839Z,100727.38
2022-08-01T06:20:02.155Z,100729.72
2022-08-01T06:22:29.154Z,100733.81
2022-08-01T06:24:57.889Z,100729.16
2022-08-01T06:27:28.687Z,100733.53
2022-08-01T06:29:55.922Z,100733.88
2022-08-01T06:32:27.939Z,100732.56
2022-08-01T06:34:56.528Z,100736.47
2022-08-01T06:37:24.316Z,100735.66
2022-08-01T06:39:51.423Z,100726.88
2022-08-01T06:42:18.809Z,100730.81
2022-08-01T06:44:46.638Z,100729.63
2022-08-01T06:47:16.138Z,100729.31
2022-08-01T06:49:43.152Z,100736.28
2022-08-01T06:52:10.535Z,100741.31
2022-08-01T06:54:37.821Z,100736.03
2022-08-01T06:57:08.127Z,100740.81
2022-08-01T06:59:35.285Z,100738.97
2022-08-01T07:02:02.725Z,100734.06
2022-08-01T07:04:30.091Z,100735.22
2022-08-01T07:06:58.265Z,100732.06
2022-08-01T07:09:25.360Z,100735.13
2022-08-01T07:11:53.495Z,100730.91
2022-08-01T07:14:22.365Z,100735.31
2022-08-01T07:16:50.592Z,100736.31
2022-08-01T07:19:18.806Z,100736.09
2022-08-01T07:21:45.971Z,100739.59
2022-08-01T07:24:20.870Z,100737.91
2022-08-01T07:26:53.168Z,100740.94
2022-08-01T07:29:28.351Z,100740.91
2022-08-01T07:31:59.942Z,100739.59
2022-08-01T07:34:27.408Z,100739.09
2022-08-01T07:36:54.553Z,100733.41
2022-08-01T07:39:21.814Z,100731.56
2022-08-01T07:42:06.650Z,100741.69
2022-08-01T07:44:35.991Z,100739.34
2022-08-01T07:47:03.154Z,100741.28
2022-08-01T07:49:30.546Z,100735.72
2022-08-01T07:52:03.355Z,100736.50
2022-08-01T07:54:34.362Z,100735.09
2022-08-01T07:57:03.802Z,100743.25
2022-08-01T07:59:31.008Z,100739.09
2022-08-01T08:01:58.124Z,100735.50
2022-08-01T08:04:26.035Z,100739.72
2022-08-01T08:06:54.426Z,100741.38
2022-08-01T08:09:21.908Z,100748.03
2022-08-01T08:11:48.999Z,100748.66
2022-08-01T08:14:18.014Z,100745.56
2022-08-01T08:16:45.553Z,100758.16
2022-08-01T08:19:13.063Z,100747.44
2022-08-01T08:21:40.838Z,100749.06
2022-08-01T08:24:26.800Z,100745.00
2022-08-01T08:27:03.887Z,100747.19
2022-08-01T08:29:33.399Z,100751.16
2022-08-01T08:32:01.938Z,100758.53
2022-08-01T08:34:29.849Z,100759.34
2022-08-01T08:36:59.164Z,100753.16
2022-08-01T08:39:27.585Z,100751.78
2022-08-01T08:41:54.659Z,100755.03
2022-08-01T08:44:22.097Z,100755.31
2022-08-01T08:46:52.397Z,100752.88
2022-08-01T08:49:24.687Z,100753.97
2022-08-01T08:51:54.083Z,100756.34
2022-08-01T08:54:29.042Z,100753.44
2022-08-01T08:57:00.783Z,100768.56
2022-08-01T08:59:29.455Z,100759.88
2022-08-01T09:01:58.311Z,100769.09
2022-08-01T09:04:27.438Z,100764.53
2022-08-01T09:06:55.895Z,100768.56
2022-08-01T09:09:24.344Z,100771.81
2022-08-01T09:11:56.967Z,100771.22
2022-08-01T09:14:30.957Z,100777.19
2022-08-01T09:17:10.925Z,100769.91
2022-08-01T09:19:54.869Z,100766.66
2022-08-01T09:22:26.557Z,100769.09
2022-08-01T09:25:11.806Z,100772.88
2022-08-01T09:27:44.431Z,100763.66
2022-08-01T09:30:26.039Z,100772.81
2022-08-01T09:33:06.230Z,100772.91
2022-08-01T09:35:43.018Z,100772.59
2022-08-01T09:38:23.037Z,100773.97
2022-08-01T09:40:58.937Z,100781.56
2022-08-01T09:43:28.777Z,100779.66
2022-08-01T09:45:58.172Z,100779.94
2022-08-01T09:48:28.571Z,100773.69
2022-08-01T09:51:09.604Z,100774.50
2022-08-01T09:53:52.168Z,100770.38
2022-08-01T09:56:22.685Z,100764.56
2022-08-01T09:59:01.052Z,100769.81
2022-08-01T10:01:44.585Z,100768.63
2022-08-01T10:04:20.709Z,100773.03
2022-08-01T10:06:53.684Z,100771.78
2022-08-01T10:09:40.353Z,100772.50
2022-08-01T10:12:15.939Z,100764.22
2022-08-01T10:14:50.180Z,100763.03
2022-08-01T10:17:20.593Z,100764.03
2022-08-01T10:19:51.501Z,100756.09
2022-08-01T10:22:21.255Z,100760.50
2022-08-01T10:24:50.153Z,100751.34
2022-08-01T10:27:24.351Z,100753.63
2022-08-01T10:30:14.105Z,100753.16
2022-08-01T10:32:50.911Z,100752.00
2022-08-01T10:35:45.568Z,100750.06
2022-08-01T10:38:13.411Z,100755.38
2022-08-01T10:40:43.148Z,100750.22
2022-08-01T10:43:21.684Z,100749.34
2022-08-01T10:45:50.705Z,100749.25
2022-08-01T10:48:33.024Z,100741.47
2022-08-01T10:51:18.010Z,100736.16
2022-08-01T10:53:56.194Z,100744.50
2022-08-01T10:56:26.846Z,100740.56
2022-08-01T10:59:06.713Z,100743.38
2022-08-01T11:01:44.932Z,100739.50
2022-08-01T11:04:17.779Z,100737.09
2022-08-01T11:07:05.041Z,100733.44
2022-08-01T11:09:49.524Z,100741.69
2022-08-01T11:12:23.307Z,100742.41
2022-08-01T11:15:02.881Z,100732.38
2022-08-01T11:17:54.830Z,100726.81
2022-08-01T11:20:32.606Z,100729.81
2022-08-01T11:23:03.421Z,100726.25
2022-08-01T11:26:06.012Z,100729.78
2022-08-01T11:28:36.453Z,100729.28
2022-08-01T11:31:10.923Z,100730.25
2022-08-01T11:33:46.990Z,100735.09
2022-08-01T11:36:15.492Z,100726.44
2022-08-01T11:39:05.366Z,100731.19
2022-08-01T11:41:44.243Z,100729.59
2022-08-01T11:44:25.026Z,100727.66
2022-08-01T11:47:01.148Z,100734.28
2022-08-01T11:49:48.913Z,100727.19
2022-08-01T11:52:29.769Z,100728.63
2022-08-01T11:55:04.617Z,100727.00
2022-08-01T11:57:38.252Z,100727.28
2022-08-01T12:00:17.972Z,100727.47
2022-08-01T12:02:47.775Z,100716.28
2022-08-01T12:05:19.293Z,100721.47
2022-08-01T12:07:50.215Z,100721.38
2022-08-01T12:10:20.492Z,100727.00
2022-08-01T12:12:51.307Z,100724.38
2022-08-01T12:15:20.486Z,100729.78
2022-08-01T12:17:58.517Z,100722.00
2022-08-01T12:20:32.653Z,100718.66
2022-08-01T12:23:10.748Z,100716.88
2022-08-01T12:25:42.003Z,100716.06
2022-08-01T12:28:10.088Z,100706.44
2022-08-01T12:30:38.754Z,100712.03
2022-08-01T12:33:08.905Z,100705.78
2022-08-01T12:35:38.014Z,100717.22
2022-08-01T12:38:14.725Z,100719.63
2022-08-01T12:40:45.562Z,100722.19
2022-08-01T12:43:28.327Z,100712.03
2022-08-01T12:45:58.485Z,100720.13
2022-08-01T12:48:26.577Z,100711.44
2022-08-01T12:50:54.880Z,100711.41
2022-08-01T12:53:23.858Z,100708.97
2022-08-01T12:55:58.430Z,100704.69
2022-08-01T12:58:33.998Z,100703.16
2022-08-01T13:01:09.203Z,100708.13
2022-08-01T13:03:37.144Z,100710.84
2022-08-01T13:06:17.749Z,100707.06
2022-08-01T13:08:47.130Z,100703.97
2022-08-01T13:11:17.716Z,100709.63
2022-08-01T13:13:50.865Z,100711.72
2022-08-01T13:16:56.858Z,100702.88
2022-08-01T13:19:47.824Z,100706.41
2022-08-01T13:22:15.025Z,100710.09
2022-08-01T13:24:42.302Z,100706.72
2022-08-01T13:27:24.819Z,100705.13
2022-08-01T13:29:53.903Z,100705.63
2022-08-01T13:32:29.884Z,100712.56
2022-08-01T13:35:23.747Z,100705.16
2022-08-01T13:37:50.921Z,100713.06
2022-08-01T13:40:27.811Z,100714.72
2022-08-01T13:42:57.567Z,100717.38
2022-08-01T13:45:26.559Z,100715.72
2022-08-01T13:48:12.310Z,100715.91
2022-08-01T13:50:40.906Z,100720.06
2022-08-01T13:53:08.138Z,100713.28
2022-08-01T13:55:35.679Z,100713.50
2022-08-01T13:58:04.118Z,100721.88
2022-08-01T14:00:31.584Z,100713.84
2022-08-01T14:02:58.661Z,100709.09
2022-08-01T14:05:25.637Z,100719.88
2022-08-01T14:07:56.435Z,100718.75
2022-08-01T14:10:24.901Z,100722.78
2022-08-01T14:12:52.202Z,100726.50
2022-08-01T14:15:38.048Z,100726.91
2022-08-01T14:18:07.965Z,100726.28
2022-08-01T14:20:41.888Z,100725.63
2022-08-01T14:23:10.232Z,100723.03
2022-08-01T14:26:03.478Z,100726.69
2022-08-01T14:28:28.850Z,100727.47
2022-08-01T14:30:56.569Z,100731.53
2022-08-01T14:33:24.141Z,100719.19
2022-08-01T14:36:01.719Z,100716.34
2022-08-01T14:38:34.385Z,100720.44
2022-08-01T14:41:04.296Z,100715.06
2022-08-01T14:43:33.579Z,100715.94
2022-08-01T14:46:02.254Z,100717.41
2022-08-01T14:48:29.826Z,100719.63
2022-08-01T14:50:58.651Z,100720.16
2022-08-01T14:53:25.897Z,100718.06
2022-08-01T14:55:53.033Z,100715.63
2022-08-01T14:58:20.539Z,100721.28
2022-08-01T15:00:47.934Z,100722.75
2022-08-01T15:03:15.133Z,100721.97
2022-08-01T15:05:42.128Z,100729.28
2022-08-01T15:08:09.137Z,100724.72
2022-08-01T15:10:36.366Z,100726.16
2022-08-01T15:13:03.483Z,100734.13
2022-08-01T15:15:33.104Z,100724.75
2022-08-01T15:18:00.232Z,100724.44
2022-08-01T15:20:28.053Z,100723.31
2022-08-01T15:22:55.454Z,100724.94
2022-08-01T15:25:22.637Z,100724.53
2022-08-01T15:27:49.723Z,100727.66
2022-08-01T15:30:16.801Z,100721.22
2022-08-01T15:32:51.168Z,100726.84
2022-08-01T15:35:18.648Z,100714.94
2022-08-01T15:37:45.912Z,100720.06
2022-08-01T15:40:13.234Z,100722.84
2022-08-01T15:42:40.454Z,100723.88
2022-08-01T15:45:20.655Z,100721.97
2022-08-01T15:47:55.933Z,100724.38
2022-08-01T15:50:23.106Z,100722.72
2022-08-01T15:52:50.187Z,100723.47
2022-08-01T15:55:17.226Z,100728.03
2022-08-01T15:57:44.448Z,100724.94
2022-08-01T16:00:12.102Z,100728.63
2022-08-01T16:02:39.129Z,100734.09
2022-08-01T16:05:07.345Z,100722.38
2022-08-01T16:07:34.428Z,100716.56
2022-08-01T16:10:01.484Z,100734.38
2022-08-01T16:12:28.808Z,100728.66
2022-08-01T16:14:57.334Z,100730.13
2022-08-01T16:17:24.739Z,100729.66
2022-08-01T16:19:52.383Z,100727.06
2022-08-01T16:22:20.528Z,100731.06
2022-08-01T16:24:48.162Z,100730.16
2022-08-01T16:27:15.346Z,100732.72
2022-08-01T16:29:42.353Z,100734.16
2022-08-01T16:32:13.717Z,100739.91
2022-08-01T16:34:50.860Z,100740.41
2022-08-01T16:37:17.870Z,100735.69
2022-08-01T16:39:45.775Z,100733.47
2022-08-01T16:42:15.162Z,100731.09
2022-08-01T16:44:42.895Z,100731.81
2022-08-01T16:47:11.294Z,100738.69
2022-08-01T16:49:38.883Z,100745.66
2022-08-01T16:52:07.532Z,100749.22
2022-08-01T16:54:34.720Z,100748.34
2022-08-01T16:57:08.252Z,100741.16
2022-08-01T16:59:41.744Z,100754.38
2022-08-01T17:02:11.159Z,100748.16
2022-08-01T17:04:38.523Z,100748.06
2022-08-01T17:07:05.924Z,100749.88
2022-08-01T17:09:33.265Z,100753.91
2022-08-01T17:12:00.665Z,100759.97
2022-08-01T17:14:29.708Z,100754.63
2022-08-01T17:16:56.839Z,100760.13
2022-08-01T17:19:24.210Z,100754.00
2022-08-01T17:22:00.055Z,100756.13
2022-08-01T17:24:27.276Z,100757.84
2022-08-01T17:26:54.530Z,100757.78
2022-08-01T17:29:21.851Z,100760.53
2022-08-01T17:31:49.136Z,100763.94
2022-08-01T17:34:16.706Z,100766.91
2022-08-01T17:36:43.724Z,100762.69
2022-08-01T17:39:12.587Z,100769.88
2022-08-01T17:41:40.902Z,100766.25
2022-08-01T17:44:08.570Z,100768.41
2022-08-01T17:46:35.686Z,100774.06
2022-08-01T17:49:03.630Z,100776.63
2022-08-01T17:51:31.070Z,100774.47
2022-08-01T17:53:58.192Z,100782.97
2022-08-01T17:56:27.267Z,100778.94
2022-08-01T17:58:54.993Z,100775.59
2022-08-01T18:01:26.852Z,100780.31
2022-08-01T18:03:55.322Z,100788.97
2022-08-01T18:06:24.823Z,100786.91
2022-08-01T18:08:55.282Z,100788.59
2022-08-01T18:11:24.648Z,100788.38
2022-08-01T18:13:55.349Z,100784.03
2022-08-01T18:16:22.928Z,100792.75
2022-08-01T18:18:49.953Z,100792.16
2022-08-01T18:21:17.326Z,100798.84
2022-08-01T18:23:51.709Z,100793.81
2022-08-01T18:26:40.483Z,100801.56
2022-08-01T18:29:08.068Z,100808.81
2022-08-01T18:31:35.464Z,100808.41
2022-08-01T18:34:02.584Z,100807.06
2022-08-01T18:36:32.796Z,100818.22
2022-08-01T18:39:05.474Z,100816.28
2022-08-01T18:41:35.292Z,100812.50
2022-08-01T18:44:08.114Z,100815.13
2022-08-01T18:46:37.773Z,100826.53
2022-08-01T18:49:06.702Z,100822.91
2022-08-01T18:51:34.074Z,100826.41
2022-08-01T18:54:01.202Z,100834.78
2022-08-01T18:56:28.450Z,100835.84
2022-08-01T18:58:55.683Z,100842.34
2022-08-01T19:01:22.951Z,100853.13
2022-08-01T19:03:50.239Z,100844.69
2022-08-01T19:06:17.243Z,100848.22
2022-08-01T19:08:46.056Z,100855.66
2022-08-01T19:11:13.244Z,100865.03
2022-08-01T19:13:40.385Z,100866.16
2022-08-01T19:16:07.353Z,100870.59
2022-08-01T19:18:34.932Z,100876.44
2022-08-01T19:21:06.932Z,100877.41
2022-08-01T19:23:53.480Z,100878.38
2022-08-01T19:26:27.307Z,100887.91
2022-08-01T19:29:06.552Z,100883.28
2022-08-01T19:31:37.371Z,100888.94
2022-08-01T19:34:11.071Z,100891.09
2022-08-01T19:36:39.235Z,100886.53
2022-08-01T19:39:10.159Z,100887.84
2022-08-01T19:41:38.650Z,100896.47
2022-08-01T19:44:07.891Z,100901.78
2022-08-01T19:46:34.896Z,100895.75
2022-08-01T19:49:01.992Z,100899.25
2022-08-01T19:51:33.302Z,100904.50
2022-08-01T19:54:06.758Z,100903.06
2022-08-01T19:56:41.677Z,100904.56
2022-08-01T19:59:09.455Z,100904.81
2022-08-01T20:01:38.082Z,100908.56
2022-08-01T20:04:06.251Z,100898.53
2022-08-01T20:06:34.998Z,100906.47
2022-08-01T20:09:04.327Z,100899.88
2022-08-01T20:11:31.601Z,100900.97
2022-08-01T20:13:59.818Z,100918.00
2022-08-01T20:16:28.945Z,100908.97
2022-08-01T20:18:56.938Z,100914.00
2022-08-01T20:21:27.551Z,100912.31
2022-08-01T20:24:02.772Z,100918.56
2022-08-01T20:26:31.379Z,100911.16
2022-08-01T20:29:00.366Z,100924.13
2022-08-01T20:31:33.975Z,100922.31
2022-08-01T20:34:15.575Z,100921.78
2022-08-01T20:36:54.403Z,100928.84
2022-08-01T20:39:28.751Z,100929.31
2022-08-01T20:42:04.318Z,100933.22
2022-08-01T20:44:47.695Z,100929.47
2022-08-01T20:47:15.255Z,100930.84
2022-08-01T20:49:46.245Z,100934.50
2022-08-01T20:52:13.638Z,100924.41
2022-08-01T20:54:42.938Z,100929.75
2022-08-01T20:57:21.446Z,100928.28
2022-08-01T20:59:57.281Z,100929.34
2022-08-01T21:03:07.908Z,100935.31
2022-08-01T21:05:42.437Z,100934.44
2022-08-01T21:08:42.307Z,100920.78
2022-08-01T21:11:17.030Z,100928.84
2022-08-01T21:13:48.133Z,100922.50
2022-08-01T21:16:23.743Z,100931.06
2022-08-01T21:19:19.121Z,100936.31
2022-08-01T21:22:12.385Z,100940.16
2022-08-01T21:25:03.476Z,100944.72
2022-08-01T21:27:34.254Z,100952.66
2022-08-01T21:30:08.652Z,100957.81
2022-08-01T21:32:37.538Z,100954.84
2022-08-01T21:35:15.922Z,100961.03
2022-08-01T21:37:52.186Z,100963.28
2022-08-01T21:40:22.671Z,100973.63
2022-08-01T21:42:53.231Z,100974.19
2022-08-01T21:45:27.148Z,100970.94
2022-08-01T21:47:56.827Z,100970.63
2022-08-01T21:50:24.824Z,100976.88
2022-08-01T21:53:31.956Z,100978.59
2022-08-01T21:56:10.980Z,100983.44
2022-08-01T21:59:00.425Z,100989.41
2022-08-01T22:01:53.245Z,100988.28
2022-08-01T22:04:43.394Z,100991.03
2022-08-01T22:07:13.158Z,100991.56
2022-08-01T22:09:44.654Z,100998.91
2022-08-01T22:12:17.847Z,100995.88
2022-08-01T22:14:50.008Z,101003.47
2022-08-01T22:17:22.746Z,101000.25
2022-08-01T22:19:56.690Z,101005.13
2022-08-01T22:22:44.445Z,101007.31
2022-08-01T22:25:13.201Z,101012.72
2022-08-01T22:28:06.171Z,101008.38
2022-08-01T22:30:32.086Z,101018.69
2022-08-01T22:33:15.584Z,101017.59
2022-08-01T22:35:50.761Z,101015.97
2022-08-01T22:38:23.610Z,101015.75
2022-08-01T22:40:59.475Z,101020.63
2022-08-01T22:43:56.842Z,101019.53
2022-08-01T22:46:58.223Z,101022.53
2022-08-01T22:50:08.249Z,101022.25
2022-08-01T22:52:46.535Z,101029.31
2022-08-01T22:55:17.695Z,101025.53
2022-08-01T22:58:11.161Z,101033.09
2022-08-01T23:00:41.404Z,101037.72
2022-08-01T23:03:32.609Z,101036.63
2022-08-01T23:06:07.206Z,101035.50
2022-08-01T23:08:35.473Z,101043.94
2022-08-01T23:11:05.409Z,101042.03
2022-08-01T23:13:33.919Z,101037.16
2022-08-01T23:16:02.938Z,101045.28
2022-08-01T23:18:30.927Z,101041.50
2022-08-01T23:21:01.832Z,101045.56
2022-08-01T23:23:31.866Z,101045.00
2022-08-01T23:26:00.143Z,101050.09
2022-08-01T23:28:28.878Z,101049.66
2022-08-01T23:30:58.303Z,101051.81
2022-08-01T23:33:25.464Z,101049.63
2022-08-01T23:35:52.581Z,101052.53
2022-08-01T23:38:20.425Z,101053.91
2022-08-01T23:40:47.744Z,101055.50
2022-08-01T23:43:16.816Z,101054.94
2022-08-01T23:46:02.200Z,101059.03
2022-08-01T23:48:33.508Z,101051.75
2022-08-01T23:51:00.972Z,101053.31
2022-08-01T23:53:31.045Z,101053.31
2022-08-01T23:56:02.594Z,101057.66
2022-08-01T23:58:30.445Z,101063.91
